createdAt,value
2023-02-11T00:00:49.412Z,99.40
2023-02-11T00:01:49.036Z,99.24
2023-02-11T00:02:49.007Z,99.13
2023-02-11T00:03:49.837Z,99.13
2023-02-11T00:04:48.953Z,99.13
2023-02-11T00:05:49.326Z,99.13
2023-02-11T00:06:48.922Z,99.28
2023-02-11T00:07:48.913Z,99.38
2023-02-11T00:08:48.916Z,99.38
2023-02-11T00:09:49.635Z,99.60
2023-02-11T00:10:49.220Z,99.99
2023-02-11T00:11:48.881Z,99.99
2023-02-11T00:12:48.902Z,99.99
2023-02-11T00:13:48.856Z,99.99
2023-02-11T00:14:48.855Z,99.99
2023-02-11T00:15:49.263Z,99.99
2023-02-11T00:16:48.874Z,99.55
2023-02-11T00:17:48.819Z,99.24
2023-02-11T00:18:48.839Z,98.92
2023-02-11T00:19:48.794Z,98.81
2023-02-11T00:20:48.839Z,98.86
2023-02-11T00:21:48.776Z,98.96
2023-02-11T00:22:48.798Z,98.96
2023-02-11T00:23:48.768Z,99.07
2023-02-11T00:24:48.771Z,99.22
2023-02-11T00:25:49.058Z,99.32
2023-02-11T00:26:48.762Z,99.54
2023-02-11T00:27:48.736Z,99.96
2023-02-11T00:28:48.740Z,99.99
2023-02-11T00:29:48.697Z,99.99
2023-02-11T00:30:48.773Z,99.99
2023-02-11T00:31:48.856Z,99.99
2023-02-11T00:32:48.664Z,99.99
2023-02-11T00:33:48.659Z,99.99
2023-02-11T00:34:48.656Z,99.99
2023-02-11T00:35:49.071Z,99.99
2023-02-11T00:36:48.634Z,99.99
2023-02-11T00:37:48.634Z,99.99
2023-02-11T00:38:48.621Z,99.99
2023-02-11T00:39:48.613Z,99.99
2023-02-11T00:40:48.613Z,99.99
2023-02-11T00:41:48.620Z,99.99
2023-02-11T00:42:48.564Z,99.99
2023-02-11T00:43:48.573Z,99.99
2023-02-11T00:44:48.562Z,99.99
2023-02-11T00:45:48.895Z,99.99
2023-02-11T00:46:48.522Z,99.99
2023-02-11T00:47:48.514Z,99.87
2023-02-11T00:48:48.514Z,99.76
2023-02-11T00:49:48.921Z,99.98
2023-02-11T00:50:49.474Z,99.87
2023-02-11T00:51:48.488Z,99.76
2023-02-11T00:52:48.547Z,99.76
2023-02-11T00:53:48.892Z,99.66
2023-02-11T00:54:48.457Z,99.49
2023-02-11T00:55:48.826Z,99.38
2023-02-11T00:56:48.432Z,99.49
2023-02-11T00:57:48.429Z,99.49
2023-02-11T00:58:48.477Z,99.60
2023-02-11T00:59:48.396Z,99.70
2023-02-11T01:00:48.383Z,99.60
2023-02-11T01:01:48.456Z,99.64
2023-02-11T01:02:48.405Z,99.75
2023-02-11T01:03:48.445Z,99.85
2023-02-11T01:04:48.436Z,99.85
2023-02-11T01:05:48.799Z,99.75
2023-02-11T01:06:48.342Z,99.75
2023-02-11T01:07:48.361Z,99.96
2023-02-11T01:08:48.316Z,99.99
2023-02-11T01:09:48.295Z,99.99
2023-02-11T01:10:48.302Z,99.99
2023-02-11T01:11:48.289Z,99.99
2023-02-11T01:12:48.276Z,99.99
2023-02-11T01:13:48.262Z,99.99
2023-02-11T01:14:48.265Z,99.99
2023-02-11T01:15:48.410Z,99.99
2023-02-11T01:16:48.233Z,99.99
2023-02-11T01:17:48.226Z,99.99
2023-02-11T01:18:48.231Z,99.99
2023-02-11T01:19:48.242Z,99.99
2023-02-11T01:20:48.211Z,99.99
2023-02-11T01:21:48.380Z,99.99
2023-02-11T01:22:48.177Z,99.99
2023-02-11T01:23:48.186Z,99.99
2023-02-11T01:24:48.176Z,99.99
2023-02-11T01:25:49.304Z,99.99
2023-02-11T01:26:48.161Z,99.99
2023-02-11T01:27:48.159Z,99.99
2023-02-11T01:28:48.135Z,99.99
2023-02-11T01:29:48.356Z,99.99
2023-02-11T01:30:48.575Z,99.99
2023-02-11T01:31:48.135Z,99.99
2023-02-11T01:32:48.087Z,99.99
2023-02-11T01:33:48.058Z,99.99
2023-02-11T01:34:48.062Z,99.99
2023-02-11T01:35:48.390Z,99.99
2023-02-11T01:36:48.045Z,99.99
2023-02-11T01:37:48.065Z,99.99
2023-02-11T01:38:48.266Z,99.99
2023-02-11T01:39:48.004Z,99.99
2023-02-11T01:40:47.995Z,99.64
2023-02-11T01:41:47.984Z,99.43
2023-02-11T01:42:50.913Z,99.48
2023-02-11T01:43:47.977Z,99.48
2023-02-11T01:44:47.968Z,99.58
2023-02-11T01:45:48.439Z,99.69
2023-02-11T01:46:48.154Z,99.69
2023-02-11T01:47:48.558Z,99.90
2023-02-11T01:48:47.993Z,99.99
2023-02-11T01:49:47.913Z,99.99
2023-02-11T01:50:47.897Z,99.99
2023-02-11T01:51:48.126Z,99.99
2023-02-11T01:52:47.917Z,99.99
2023-02-11T01:53:47.870Z,99.99
2023-02-11T01:54:47.873Z,99.99
2023-02-11T01:55:48.365Z,99.99
2023-02-11T01:56:47.990Z,99.99
2023-02-11T01:57:47.833Z,99.99
2023-02-11T01:58:47.827Z,99.99
2023-02-11T01:59:47.830Z,99.99
2023-02-11T02:00:47.965Z,99.99
2023-02-11T02:01:47.870Z,99.99
2023-02-11T02:02:47.787Z,99.99
2023-02-11T02:03:47.832Z,99.99
2023-02-11T02:04:47.767Z,99.99
2023-02-11T02:05:48.230Z,99.99
2023-02-11T02:06:47.758Z,99.99
2023-02-11T02:07:47.751Z,99.99
2023-02-11T02:08:47.728Z,99.99
2023-02-11T02:09:47.708Z,99.99
2023-02-11T02:10:47.708Z,99.99
2023-02-11T02:11:47.688Z,99.99
2023-02-11T02:12:47.685Z,99.99
2023-02-11T02:13:47.678Z,99.99
2023-02-11T02:14:47.668Z,99.99
2023-02-11T02:15:47.931Z,99.99
2023-02-11T02:16:47.656Z,99.99
2023-02-11T02:17:47.627Z,99.99
2023-02-11T02:18:47.636Z,99.99
2023-02-11T02:19:47.606Z,99.99
2023-02-11T02:20:47.622Z,99.99
2023-02-11T02:21:47.586Z,99.99
2023-02-11T02:22:47.627Z,99.99
2023-02-11T02:23:47.561Z,99.99
2023-02-11T02:24:47.567Z,99.99
2023-02-11T02:25:47.769Z,99.99
2023-02-11T02:26:47.545Z,99.99
2023-02-11T02:27:47.530Z,99.99
2023-02-11T02:28:47.529Z,99.99
2023-02-11T02:29:47.515Z,99.99
2023-02-11T02:30:47.566Z,99.99
2023-02-11T02:31:47.585Z,99.99
2023-02-11T02:32:47.485Z,99.99
2023-02-11T02:33:47.465Z,99.99
2023-02-11T02:34:47.466Z,99.99
2023-02-11T02:35:47.718Z,99.99
2023-02-11T02:36:47.446Z,99.99
2023-02-11T02:37:47.423Z,99.99
2023-02-11T02:38:47.426Z,99.99
2023-02-11T02:39:47.406Z,99.99
2023-02-11T02:40:47.410Z,99.99
2023-02-11T02:41:47.397Z,99.99
2023-02-11T02:42:47.386Z,99.99
2023-02-11T02:43:47.377Z,99.99
2023-02-11T02:44:47.358Z,99.99
2023-02-11T02:45:47.493Z,99.99
2023-02-11T02:46:47.574Z,99.99
2023-02-11T02:47:47.336Z,99.99
2023-02-11T02:48:47.316Z,99.99
2023-02-11T02:49:47.327Z,99.99
2023-02-11T02:50:47.302Z,99.99
2023-02-11T02:51:47.300Z,99.99
2023-02-11T02:52:47.351Z,99.99
2023-02-11T02:53:47.291Z,99.99
2023-02-11T02:54:47.294Z,99.99
2023-02-11T02:55:47.284Z,99.99
2023-02-11T02:56:47.237Z,99.99
2023-02-11T02:57:47.242Z,99.99
2023-02-11T02:58:47.490Z,99.99
2023-02-11T02:59:47.213Z,99.99
2023-02-11T03:00:47.230Z,99.99
2023-02-11T03:01:47.209Z,99.99
2023-02-11T03:02:47.182Z,99.99
2023-02-11T03:03:47.213Z,99.99
2023-02-11T03:04:47.165Z,99.99
2023-02-11T03:05:47.165Z,99.99
2023-02-11T03:06:47.135Z,99.99
2023-02-11T03:07:47.147Z,99.99
2023-02-11T03:08:47.121Z,99.99
2023-02-11T03:09:47.164Z,99.99
2023-02-11T03:10:47.126Z,99.99
2023-02-11T03:11:47.111Z,99.99
2023-02-11T03:12:47.111Z,99.99
2023-02-11T03:13:47.095Z,99.99
2023-02-11T03:14:47.881Z,99.99
2023-02-11T03:15:47.147Z,99.99
2023-02-11T03:16:47.053Z,99.99
2023-02-11T03:17:47.132Z,99.99
2023-02-11T03:18:47.115Z,99.99
2023-02-11T03:19:47.034Z,99.99
2023-02-11T03:20:47.008Z,99.99
2023-02-11T03:21:47.005Z,99.99
2023-02-11T03:22:46.995Z,99.99
2023-02-11T03:23:46.998Z,99.99
2023-02-11T03:24:47.027Z,99.99
2023-02-11T03:25:46.983Z,99.99
2023-02-11T03:26:46.968Z,99.99
2023-02-11T03:27:46.947Z,99.99
2023-02-11T03:28:46.936Z,99.99
2023-02-11T03:29:46.927Z,99.99
2023-02-11T03:30:47.078Z,99.99
2023-02-11T03:31:46.915Z,99.99
2023-02-11T03:32:46.903Z,99.99
2023-02-11T03:33:46.888Z,99.99
2023-02-11T03:34:46.867Z,99.99
2023-02-11T03:35:46.864Z,99.99
2023-02-11T03:36:47.031Z,99.99
2023-02-11T03:37:46.898Z,99.99
2023-02-11T03:38:46.837Z,99.99
2023-02-11T03:39:46.818Z,99.99
2023-02-11T03:40:46.819Z,99.99
2023-02-11T03:41:46.809Z,99.99
2023-02-11T03:42:46.800Z,99.99
2023-02-11T03:43:46.837Z,99.99
2023-02-11T03:44:46.779Z,99.99
2023-02-11T03:45:46.796Z,99.99
2023-02-11T03:46:46.753Z,99.99
2023-02-11T03:47:46.739Z,99.99
2023-02-11T03:48:46.740Z,99.99
2023-02-11T03:49:46.729Z,99.98
2023-02-11T03:50:46.722Z,99.76
2023-02-11T03:51:46.703Z,99.60
2023-02-11T03:52:46.708Z,99.49
2023-02-11T03:53:46.772Z,99.38
2023-02-11T03:54:46.682Z,99.38
2023-02-11T03:55:46.670Z,99.60
2023-02-11T03:56:46.648Z,99.75
2023-02-11T03:57:46.682Z,99.85
2023-02-11T03:58:46.634Z,99.75
2023-02-11T03:59:46.648Z,99.75
2023-02-11T04:00:46.662Z,99.85
2023-02-11T04:01:46.632Z,99.99
2023-02-11T04:02:46.624Z,99.99
2023-02-11T04:03:46.589Z,99.99
2023-02-11T04:04:46.570Z,99.99
2023-02-11T04:05:46.581Z,99.79
2023-02-11T04:06:46.554Z,99.90
2023-02-11T04:07:46.551Z,99.99
2023-02-11T04:08:46.544Z,99.99
2023-02-11T04:09:46.558Z,99.99
2023-02-11T04:10:46.511Z,99.99
2023-02-11T04:11:46.511Z,99.99
2023-02-11T04:12:46.490Z,99.99
2023-02-11T04:13:46.492Z,99.99
2023-02-11T04:14:46.501Z,99.99
2023-02-11T04:15:48.813Z,99.99
2023-02-11T04:16:46.502Z,99.90
2023-02-11T04:17:46.448Z,99.69
2023-02-11T04:18:46.462Z,99.58
2023-02-11T04:19:46.433Z,99.52
2023-02-11T04:20:46.421Z,99.63
2023-02-11T04:21:46.409Z,99.73
2023-02-11T04:22:46.407Z,99.99
2023-02-11T04:23:46.400Z,99.99
2023-02-11T04:24:46.374Z,99.99
2023-02-11T04:25:46.374Z,99.99
2023-02-11T04:26:46.354Z,99.99
2023-02-11T04:27:46.364Z,99.99
2023-02-11T04:28:46.350Z,99.99
2023-02-11T04:29:46.337Z,99.99
2023-02-11T04:30:46.360Z,99.99
2023-02-11T04:31:46.355Z,99.99
2023-02-11T04:32:46.306Z,99.99
2023-02-11T04:33:46.311Z,99.99
2023-02-11T04:34:46.287Z,99.99
2023-02-11T04:35:46.290Z,99.99
2023-02-11T04:36:46.266Z,99.99
2023-02-11T04:37:46.256Z,99.99
2023-02-11T04:38:46.256Z,99.99
2023-02-11T04:39:46.277Z,99.99
2023-02-11T04:40:46.224Z,99.99
2023-02-11T04:41:46.996Z,99.99
2023-02-11T04:42:46.198Z,99.99
2023-02-11T04:43:46.196Z,99.99
2023-02-11T04:44:46.177Z,99.99
2023-02-11T04:45:47.029Z,99.99
2023-02-11T04:46:46.460Z,99.99
2023-02-11T04:47:46.191Z,99.99
2023-02-11T04:48:46.160Z,99.99
2023-02-11T04:49:46.260Z,99.99
2023-02-11T04:50:46.995Z,99.99
2023-02-11T04:51:49.224Z,99.99
2023-02-11T04:52:46.107Z,99.99
2023-02-11T04:53:46.899Z,99.99
2023-02-11T04:54:46.083Z,99.99
2023-02-11T04:55:46.097Z,99.99
2023-02-11T04:56:46.071Z,99.99
2023-02-11T04:57:46.060Z,99.99
2023-02-11T04:58:46.039Z,99.99
2023-02-11T04:59:46.042Z,99.99
2023-02-11T05:00:46.828Z,99.99
2023-02-11T05:01:46.033Z,99.99
2023-02-11T05:02:46.005Z,99.99
2023-02-11T05:03:46.043Z,99.99
2023-02-11T05:04:46.021Z,99.99
2023-02-11T05:05:45.981Z,99.99
2023-02-11T05:06:45.959Z,99.99
2023-02-11T05:07:46.229Z,99.99
2023-02-11T05:08:46.342Z,99.99
2023-02-11T05:09:45.943Z,99.99
2023-02-11T05:10:45.919Z,99.99
2023-02-11T05:11:45.963Z,99.99
2023-02-11T05:12:45.899Z,99.99
2023-02-11T05:13:45.916Z,99.99
2023-02-11T05:14:45.901Z,99.99
2023-02-11T05:15:45.889Z,99.99
2023-02-11T05:16:45.991Z,99.99
2023-02-11T05:17:45.852Z,99.99
2023-02-11T05:18:45.839Z,99.99
2023-02-11T05:19:45.830Z,99.99
2023-02-11T05:20:45.822Z,99.99
2023-02-11T05:22:01.415Z,99.99
2023-02-11T05:22:46.809Z,99.99
2023-02-11T05:23:45.808Z,99.99
2023-02-11T05:24:45.783Z,99.99
2023-02-11T05:25:45.776Z,99.99
2023-02-11T05:26:45.772Z,99.99
2023-02-11T05:27:45.763Z,99.99
2023-02-11T05:28:45.752Z,99.99
2023-02-11T05:29:45.735Z,99.99
2023-02-11T05:30:45.813Z,99.99
2023-02-11T05:31:45.730Z,99.99
2023-02-11T05:32:45.712Z,99.99
2023-02-11T05:33:45.703Z,99.99
2023-02-11T05:34:45.684Z,99.99
2023-02-11T05:35:45.680Z,99.99
2023-02-11T05:36:45.668Z,99.99
2023-02-11T05:37:45.663Z,99.99
2023-02-11T05:38:45.816Z,99.99
2023-02-11T05:39:45.634Z,99.99
2023-02-11T05:40:45.623Z,99.99
2023-02-11T05:41:45.632Z,99.99
2023-02-11T05:42:45.601Z,99.99
2023-02-11T05:43:45.619Z,99.99
2023-02-11T05:44:45.590Z,99.99
2023-02-11T05:45:45.580Z,99.99
2023-02-11T05:46:45.678Z,99.99
2023-02-11T05:47:45.574Z,99.99
2023-02-11T05:48:45.576Z,99.99
2023-02-11T05:49:46.343Z,99.99
2023-02-11T05:50:45.526Z,99.99
2023-02-11T05:51:45.533Z,99.99
2023-02-11T05:54:56.383Z,99.99
2023-02-11T05:55:56.410Z,99.99
2023-02-11T05:56:56.380Z,99.99
2023-02-11T05:57:56.919Z,99.99
2023-02-11T05:58:56.354Z,99.99
2023-02-11T05:59:56.342Z,99.99
2023-02-11T06:00:56.326Z,99.99
2023-02-11T06:01:57.127Z,99.99
2023-02-11T06:02:56.354Z,99.99
2023-02-11T06:03:56.336Z,99.99
2023-02-11T06:04:56.295Z,99.99
2023-02-11T06:05:56.286Z,99.99
2023-02-11T06:06:56.262Z,99.99
2023-02-11T06:07:56.276Z,99.99
2023-02-11T06:08:56.246Z,99.99
2023-02-11T06:09:56.492Z,99.99
2023-02-11T06:10:56.230Z,99.99
2023-02-11T06:11:56.225Z,99.99
2023-02-11T06:12:56.207Z,99.99
2023-02-11T06:13:56.214Z,99.99
2023-02-11T06:14:56.196Z,99.99
2023-02-11T06:15:56.201Z,99.99
2023-02-11T06:16:56.156Z,99.99
2023-02-11T06:17:56.335Z,99.99
2023-02-11T06:18:56.967Z,99.99
2023-02-11T06:19:56.177Z,99.99
2023-02-11T06:20:56.131Z,99.99
2023-02-11T06:21:56.132Z,99.99
2023-02-11T06:22:56.098Z,99.99
2023-02-11T06:23:56.109Z,99.99
2023-02-11T06:25:01.615Z,99.99
2023-02-11T06:25:57.088Z,99.99
2023-02-11T06:26:56.068Z,99.99
2023-02-11T06:27:56.082Z,99.99
2023-02-11T06:28:56.058Z,99.99
2023-02-11T06:29:56.048Z,99.99
2023-02-11T06:30:56.143Z,99.99
2023-02-11T06:31:56.272Z,99.99
2023-02-11T06:32:56.127Z,99.99
2023-02-11T06:33:56.007Z,99.99
2023-02-11T06:34:56.845Z,99.99
2023-02-11T06:35:55.988Z,99.99
2023-02-11T06:36:55.979Z,99.99
2023-02-11T06:37:55.960Z,99.99
2023-02-11T06:38:55.961Z,99.99
2023-02-11T06:39:55.993Z,99.99
2023-02-11T06:40:55.934Z,99.99
2023-02-11T06:41:55.931Z,99.99
2023-02-11T06:42:56.691Z,99.99
2023-02-11T06:43:55.901Z,99.99
2023-02-11T06:44:55.911Z,99.99
2023-02-11T06:45:55.900Z,99.99
2023-02-11T06:46:55.987Z,99.99
2023-02-11T06:47:55.862Z,99.99
2023-02-11T06:48:55.897Z,99.99
2023-02-11T06:49:55.852Z,99.99
2023-02-11T06:50:56.642Z,99.99
2023-02-11T06:51:55.852Z,99.99
2023-02-11T06:52:55.874Z,99.99
2023-02-11T06:53:55.802Z,99.99
2023-02-11T06:54:55.827Z,99.99
2023-02-11T06:55:55.828Z,99.99
2023-02-11T06:56:55.844Z,99.99
2023-02-11T06:57:55.759Z,99.99
2023-02-11T06:58:55.785Z,99.99
2023-02-11T06:59:55.745Z,99.99
2023-02-11T07:00:55.740Z,99.99
2023-02-11T07:01:55.817Z,99.99
2023-02-11T07:02:55.776Z,99.99
2023-02-11T07:03:55.706Z,99.99
2023-02-11T07:04:55.713Z,99.99
2023-02-11T07:05:55.710Z,99.99
2023-02-11T07:06:55.700Z,99.99
2023-02-11T07:07:55.665Z,99.99
2023-02-11T07:08:55.678Z,99.99
2023-02-11T07:09:55.683Z,99.99
2023-02-11T07:10:55.673Z,99.99
2023-02-11T07:11:55.636Z,99.99
2023-02-11T07:12:58.459Z,99.99
2023-02-11T07:13:55.609Z,99.99
2023-02-11T07:14:55.614Z,99.99
2023-02-11T07:15:55.740Z,99.99
2023-02-11T07:16:55.636Z,99.82
2023-02-11T07:17:55.735Z,99.61
2023-02-11T07:18:55.577Z,99.30
2023-02-11T07:19:55.552Z,98.87
2023-02-11T07:20:55.550Z,98.45
2023-02-11T07:21:55.536Z,98.13
2023-02-11T07:22:55.632Z,98.13
2023-02-11T07:23:55.510Z,98.13
2023-02-11T07:24:55.527Z,98.19
2023-02-11T07:25:55.486Z,98.13
2023-02-11T07:26:55.492Z,97.92
2023-02-11T07:27:55.499Z,97.88
2023-02-11T07:28:55.464Z,97.99
2023-02-11T07:29:55.493Z,98.09
2023-02-11T07:30:55.485Z,98.41
2023-02-11T07:31:55.499Z,98.57
2023-02-11T07:32:55.427Z,98.68
2023-02-11T07:33:55.411Z,98.68
2023-02-11T07:34:55.460Z,98.53
2023-02-11T07:35:55.378Z,98.32
2023-02-11T07:36:55.417Z,98.11
2023-02-11T07:37:55.406Z,97.85
2023-02-11T07:38:55.607Z,97.53
2023-02-11T07:39:55.422Z,97.33
2023-02-11T07:40:56.103Z,97.11
2023-02-11T07:41:55.336Z,96.91
2023-02-11T07:42:55.337Z,97.11
2023-02-11T07:43:55.366Z,97.22
2023-02-11T07:44:55.331Z,97.17
2023-02-11T07:45:55.311Z,97.60
2023-02-11T07:46:55.453Z,97.97
2023-02-11T07:47:55.258Z,97.97
2023-02-11T07:48:55.267Z,98.18
2023-02-11T07:49:56.658Z,98.14
2023-02-11T07:50:55.387Z,98.14
2023-02-11T07:51:55.226Z,98.14
2023-02-11T07:52:55.242Z,98.10
2023-02-11T07:53:55.246Z,97.88
2023-02-11T07:54:56.021Z,97.88
2023-02-11T07:55:55.940Z,97.88
2023-02-11T07:56:55.179Z,97.74
2023-02-11T07:57:55.159Z,97.42
2023-02-11T07:58:55.958Z,97.21
2023-02-11T07:59:55.148Z,96.47
2023-02-11T08:00:55.270Z,96.16
2023-02-11T08:01:56.666Z,96.05
2023-02-11T08:02:55.110Z,96.12
2023-02-11T08:03:55.122Z,96.01
2023-02-11T08:04:55.109Z,95.70
2023-02-11T08:05:55.084Z,95.65
2023-02-11T08:06:57.801Z,95.23
2023-02-11T08:07:55.300Z,95.13
2023-02-11T08:08:55.060Z,95.08
2023-02-11T08:09:55.056Z,95.19
2023-02-11T08:10:55.043Z,94.73
2023-02-11T08:11:55.044Z,94.41
2023-02-11T08:12:55.833Z,94.10
2023-02-11T08:13:55.068Z,93.43
2023-02-11T08:14:55.000Z,93.21
2023-02-11T08:15:54.970Z,92.69
2023-02-11T08:16:55.126Z,92.69
2023-02-11T08:17:54.957Z,92.13
2023-02-11T08:18:54.950Z,91.50
2023-02-11T08:19:54.939Z,92.19
2023-02-11T08:20:54.929Z,92.19
2023-02-11T08:21:54.922Z,91.56
2023-02-11T08:22:54.919Z,89.73
2023-02-11T08:23:54.908Z,88.37
2023-02-11T08:24:54.895Z,87.85
2023-02-11T08:25:54.899Z,86.66
2023-02-11T08:26:54.891Z,86.10
2023-02-11T08:27:55.073Z,85.16
2023-02-11T08:28:54.867Z,85.36
2023-02-11T08:29:54.898Z,85.33
2023-02-11T08:30:54.880Z,84.49
2023-02-11T08:31:54.838Z,84.11
2023-02-11T08:32:54.809Z,83.86
2023-02-11T08:33:54.793Z,84.17
2023-02-11T08:34:54.806Z,85.18
2023-02-11T08:35:54.773Z,85.50
2023-02-11T08:36:54.935Z,84.45
2023-02-11T08:37:54.748Z,85.08
2023-02-11T08:38:58.696Z,85.91
2023-02-11T08:39:55.740Z,86.40
2023-02-11T08:40:54.732Z,86.61
2023-02-11T08:41:54.731Z,86.46
2023-02-11T08:42:54.716Z,84.65
2023-02-11T08:43:54.680Z,82.67
2023-02-11T08:44:54.691Z,81.73
2023-02-11T08:45:54.696Z,82.46
2023-02-11T08:46:54.661Z,81.90
2023-02-11T08:47:54.649Z,81.90
2023-02-11T08:48:54.642Z,81.02
2023-02-11T08:49:54.624Z,81.86
2023-02-11T08:50:54.624Z,80.30
2023-02-11T08:51:54.609Z,79.94
2023-02-11T08:52:54.605Z,80.16
2023-02-11T08:53:54.591Z,80.22
2023-02-11T08:54:54.572Z,79.22
2023-02-11T08:55:54.554Z,80.22
2023-02-11T08:56:54.864Z,80.19
2023-02-11T08:57:54.548Z,80.19
2023-02-11T08:58:54.543Z,79.83
2023-02-11T08:59:54.524Z,78.34
2023-02-11T09:00:54.765Z,76.78
2023-02-11T09:01:54.515Z,76.43
2023-02-11T09:02:54.499Z,74.46
2023-02-11T09:03:54.482Z,74.46
2023-02-11T09:04:54.477Z,75.98
2023-02-11T09:05:54.459Z,75.98
2023-02-11T09:06:54.457Z,75.05
2023-02-11T09:07:54.516Z,75.88
2023-02-11T09:08:54.436Z,76.29
2023-02-11T09:09:54.416Z,74.80
2023-02-11T09:10:54.417Z,75.12
2023-02-11T09:11:54.397Z,75.36
2023-02-11T09:12:54.403Z,75.46
2023-02-11T09:13:54.777Z,73.91
2023-02-11T09:14:54.367Z,73.11
2023-02-11T09:15:54.358Z,74.15
2023-02-11T09:16:54.427Z,76.47
2023-02-11T09:17:54.329Z,77.61
2023-02-11T09:18:54.338Z,77.16
2023-02-11T09:19:54.308Z,75.54
2023-02-11T09:20:54.313Z,73.87
2023-02-11T09:21:54.312Z,70.34
2023-02-11T09:22:54.279Z,72.31
2023-02-11T09:23:54.302Z,73.43
2023-02-11T09:24:54.287Z,74.49
2023-02-11T09:25:54.264Z,71.38
2023-02-11T09:26:54.248Z,68.05
2023-02-11T09:27:54.247Z,67.40
2023-02-11T09:28:54.237Z,67.37
2023-02-11T09:29:54.232Z,67.44
2023-02-11T09:30:54.719Z,67.30
2023-02-11T09:31:54.332Z,67.30
2023-02-11T09:32:54.183Z,66.75
2023-02-11T09:33:54.163Z,64.51
2023-02-11T09:34:54.997Z,65.80
2023-02-11T09:35:54.142Z,66.59
2023-02-11T09:36:54.168Z,62.24
2023-02-11T09:37:54.132Z,63.31
2023-02-11T09:38:54.133Z,65.96
2023-02-11T09:39:54.111Z,67.51
2023-02-11T09:40:54.104Z,66.51
2023-02-11T09:41:54.082Z,65.75
2023-02-11T09:42:54.077Z,67.41
2023-02-11T09:43:54.140Z,66.51
2023-02-11T09:44:54.049Z,67.30
2023-02-11T09:45:54.056Z,66.27
2023-02-11T09:46:54.041Z,65.20
2023-02-11T09:47:54.125Z,64.48
2023-02-11T09:48:54.015Z,62.95
2023-02-11T09:49:53.987Z,63.16
2023-02-11T09:50:53.989Z,62.57
2023-02-11T09:51:53.987Z,61.63
2023-02-11T09:52:53.977Z,62.74
2023-02-11T09:53:53.948Z,62.64
2023-02-11T09:54:53.964Z,62.57
2023-02-11T09:55:53.928Z,63.21
2023-02-11T09:56:53.948Z,63.14
2023-02-11T09:57:53.932Z,64.80
2023-02-11T09:58:53.921Z,65.73
2023-02-11T09:59:53.885Z,67.06
2023-02-11T10:00:53.894Z,67.16
2023-02-11T10:01:53.903Z,66.47
2023-02-11T10:02:53.863Z,65.63
2023-02-11T10:03:53.915Z,63.32
2023-02-11T10:04:53.845Z,63.16
2023-02-11T10:05:53.824Z,63.99
2023-02-11T10:06:53.822Z,63.47
2023-02-11T10:07:53.822Z,63.85
2023-02-11T10:08:54.631Z,64.58
2023-02-11T10:09:54.080Z,63.96
2023-02-11T10:10:54.053Z,63.34
2023-02-11T10:11:53.772Z,63.69
2023-02-11T10:12:53.768Z,63.25
2023-02-11T10:13:53.758Z,62.88
2023-02-11T10:14:53.747Z,60.40
2023-02-11T10:15:53.734Z,60.63
2023-02-11T10:16:53.718Z,63.15
2023-02-11T10:17:54.522Z,64.04
2023-02-11T10:18:53.709Z,63.06
2023-02-11T10:19:53.681Z,64.99
2023-02-11T10:20:53.781Z,62.55
2023-02-11T10:21:53.659Z,63.23
2023-02-11T10:22:53.650Z,63.57
2023-02-11T10:23:53.631Z,64.92
2023-02-11T10:24:53.650Z,63.54
2023-02-11T10:25:53.620Z,64.03
2023-02-11T10:26:54.150Z,62.66
2023-02-11T10:27:53.598Z,60.05
2023-02-11T10:28:53.593Z,59.61
2023-02-11T10:29:53.582Z,57.37
2023-02-11T10:30:54.452Z,54.61
2023-02-11T10:31:54.935Z,54.19
2023-02-11T10:32:53.554Z,54.92
2023-02-11T10:33:53.527Z,55.43
2023-02-11T10:34:53.527Z,55.30
2023-02-11T10:35:53.730Z,55.00
2023-02-11T10:36:53.494Z,57.26
2023-02-11T10:37:53.530Z,55.20
2023-02-11T10:38:53.485Z,53.37
2023-02-11T10:39:53.474Z,53.78
2023-02-11T10:40:53.587Z,52.44
2023-02-11T10:41:53.451Z,54.19
2023-02-11T10:42:55.553Z,60.31
2023-02-11T10:43:53.426Z,63.47
2023-02-11T10:44:53.418Z,64.84
2023-02-11T10:45:54.218Z,66.12
2023-02-11T10:46:53.385Z,67.98
2023-02-11T10:47:53.385Z,67.05
2023-02-11T10:48:53.361Z,67.25
2023-02-11T10:49:53.363Z,67.57
2023-02-11T10:50:53.367Z,68.40
2023-02-11T10:51:53.354Z,67.80
2023-02-11T10:52:53.326Z,67.11
2023-02-11T10:53:53.326Z,67.45
2023-02-11T10:54:53.307Z,67.97
2023-02-11T10:55:53.292Z,69.32
2023-02-11T10:56:53.279Z,68.90
2023-02-11T10:57:53.268Z,68.46
2023-02-11T10:58:53.248Z,68.35
2023-02-11T10:59:53.258Z,68.56
2023-02-11T11:00:53.684Z,68.53
2023-02-11T11:01:53.285Z,67.70
2023-02-11T11:02:53.225Z,67.08
2023-02-11T11:03:53.213Z,66.15
2023-02-11T11:04:53.249Z,66.25
2023-02-11T11:05:53.214Z,67.60
2023-02-11T11:06:53.183Z,67.18
2023-02-11T11:07:53.185Z,67.15
2023-02-11T11:08:53.161Z,65.84
2023-02-11T11:09:53.162Z,65.42
2023-02-11T11:10:53.432Z,66.05
2023-02-11T11:11:53.133Z,65.50
2023-02-11T11:12:53.139Z,64.87
2023-02-11T11:13:53.127Z,64.87
2023-02-11T11:14:53.092Z,64.95
2023-02-11T11:15:53.122Z,62.49
2023-02-11T11:16:53.068Z,62.91
2023-02-11T11:17:53.483Z,64.49
2023-02-11T11:18:53.057Z,65.32
2023-02-11T11:19:53.053Z,67.98
2023-02-11T11:20:53.113Z,64.98
2023-02-11T11:21:53.024Z,65.29
2023-02-11T11:22:53.014Z,63.95
2023-02-11T11:23:53.003Z,62.49
2023-02-11T11:24:53.008Z,61.67
2023-02-11T11:25:52.985Z,62.08
2023-02-11T11:26:52.972Z,62.46
2023-02-11T11:27:52.976Z,63.37
2023-02-11T11:28:52.953Z,61.99
2023-02-11T11:29:53.016Z,60.42
2023-02-11T11:30:53.408Z,60.98
2023-02-11T11:31:53.041Z,60.26
2023-02-11T11:32:52.896Z,58.79
2023-02-11T11:33:52.900Z,58.04
2023-02-11T11:34:52.882Z,56.85
2023-02-11T11:35:52.974Z,56.62
2023-02-11T11:36:52.867Z,52.53
2023-02-11T11:37:52.856Z,49.17
2023-02-11T11:38:52.836Z,49.21
2023-02-11T11:39:52.844Z,50.29
2023-02-11T11:40:52.815Z,47.99
2023-02-11T11:41:52.827Z,46.74
2023-02-11T11:42:52.808Z,48.54
2023-02-11T11:43:52.793Z,47.29
2023-02-11T11:44:52.771Z,45.59
2023-02-11T11:45:52.766Z,46.29
2023-02-11T11:46:52.789Z,44.59
2023-02-11T11:47:52.749Z,46.44
2023-02-11T11:48:52.725Z,44.49
2023-02-11T11:49:52.727Z,46.11
2023-02-11T11:50:52.991Z,46.11
2023-02-11T11:51:52.711Z,45.56
2023-02-11T11:52:52.691Z,46.23
2023-02-11T11:53:52.684Z,49.05
2023-02-11T11:54:52.647Z,47.53
2023-02-11T11:55:52.664Z,48.33
2023-02-11T11:56:52.628Z,46.71
2023-02-11T11:57:52.634Z,50.48
2023-02-11T11:58:52.626Z,50.40
2023-02-11T11:59:52.618Z,49.39
2023-02-11T12:00:52.997Z,49.98
2023-02-11T12:01:52.658Z,49.78
2023-02-11T12:02:52.625Z,48.85
2023-02-11T12:03:52.574Z,49.26
2023-02-11T12:04:52.542Z,50.27
2023-02-11T12:05:52.551Z,51.30
2023-02-11T12:06:52.521Z,47.27
2023-02-11T12:07:52.527Z,48.38
2023-02-11T12:08:52.524Z,50.36
2023-02-11T12:09:52.501Z,50.38
2023-02-11T12:10:52.889Z,48.97
2023-02-11T12:11:52.489Z,49.87
2023-02-11T12:12:52.462Z,49.07
2023-02-11T12:13:52.454Z,48.13
2023-02-11T12:14:52.455Z,47.69
2023-02-11T12:15:52.435Z,50.48
2023-02-11T12:16:52.506Z,47.96
2023-02-11T12:17:52.429Z,50.96
2023-02-11T12:18:52.397Z,49.89
2023-02-11T12:19:52.399Z,45.56
2023-02-11T12:20:52.785Z,45.95
2023-02-11T12:21:52.378Z,46.13
2023-02-11T12:22:52.347Z,45.68
2023-02-11T12:23:52.347Z,46.37
2023-02-11T12:24:52.327Z,45.51
2023-02-11T12:25:52.356Z,42.96
2023-02-11T12:26:52.304Z,42.65
2023-02-11T12:27:52.307Z,41.61
2023-02-11T12:28:52.293Z,42.14
2023-02-11T12:29:52.689Z,42.44
2023-02-11T12:30:52.724Z,45.10
2023-02-11T12:31:52.308Z,43.57
2023-02-11T12:32:52.248Z,43.14
2023-02-11T12:33:52.247Z,42.43
2023-02-11T12:34:52.225Z,42.53
2023-02-11T12:35:52.223Z,41.63
2023-02-11T12:36:52.239Z,41.93
2023-02-11T12:37:52.198Z,42.53
2023-02-11T12:38:52.197Z,43.85
2023-02-11T12:39:52.193Z,45.29
2023-02-11T12:40:52.486Z,45.00
2023-02-11T12:41:52.258Z,47.27
2023-02-11T12:42:52.137Z,46.66
2023-02-11T12:43:52.137Z,46.35
2023-02-11T12:44:52.117Z,47.35
2023-02-11T12:45:52.181Z,47.85
2023-02-11T12:46:52.119Z,47.20
2023-02-11T12:47:52.099Z,46.90
2023-02-11T12:48:52.096Z,46.37
2023-02-11T12:49:52.084Z,45.32
2023-02-11T12:50:52.274Z,46.47
2023-02-11T12:51:52.059Z,45.84
2023-02-11T12:52:52.039Z,45.12
2023-02-11T12:53:52.040Z,45.04
2023-02-11T12:54:52.004Z,45.47